createdAt,value
2022-10-15T00:01:20.974Z,100444.00
2022-10-15T00:03:47.809Z,100450.00
2022-10-15T00:06:18.873Z,100454.00
2022-10-15T00:08:46.930Z,100436.00
2022-10-15T00:11:20.351Z,100441.00
2022-10-15T00:13:47.676Z,100435.00
2022-10-15T00:16:21.764Z,100433.00
2022-10-15T00:18:49.739Z,100430.00
2022-10-15T00:21:20.274Z,100425.00
2022-10-15T00:23:47.672Z,100412.00
2022-10-15T00:26:21.418Z,100419.00
2022-10-15T00:28:51.716Z,100415.00
2022-10-15T00:31:20.957Z,100414.00
2022-10-15T00:33:53.348Z,100413.00
2022-10-15T00:36:23.918Z,100402.00
2022-10-15T00:38:52.198Z,100402.00
2022-10-15T00:41:30.641Z,100406.00
2022-10-15T00:44:23.682Z,100399.00
2022-10-15T00:47:09.223Z,100403.00
2022-10-15T00:49:40.739Z,100398.00
2022-10-15T00:52:15.466Z,100408.00
2022-10-15T00:54:49.467Z,100398.00
2022-10-15T00:57:16.739Z,100402.00
2022-10-15T00:59:55.827Z,100400.00
2022-10-15T01:02:23.292Z,100391.00
2022-10-15T01:04:50.859Z,100387.00
2022-10-15T01:09:50.164Z,100378.00
2022-10-15T01:13:11.131Z,100380.00
2022-10-15T01:16:07.918Z,100368.00
2022-10-15T01:19:26.293Z,100359.00
2022-10-15T01:22:13.476Z,100359.00
2022-10-15T01:28:31.192Z,100360.00
2022-10-15T01:31:17.355Z,100357.00
2022-10-15T01:34:34.806Z,100359.00
2022-10-15T01:37:24.928Z,100351.00
2022-10-15T01:40:17.766Z,100354.00
2022-10-15T01:42:54.769Z,100349.00
2022-10-15T01:45:35.373Z,100351.00
2022-10-15T01:48:10.421Z,100345.00
2022-10-15T01:50:46.472Z,100340.00
2022-10-15T01:53:19.723Z,100335.00
2022-10-15T01:55:48.094Z,100342.00
2022-10-15T01:58:17.883Z,100340.00
2022-10-15T02:00:47.242Z,100343.00
2022-10-15T02:03:14.418Z,100339.00
2022-10-15T02:06:06.188Z,100332.00
2022-10-15T02:08:48.771Z,100326.00
2022-10-15T02:11:16.905Z,100330.00
2022-10-15T02:14:14.909Z,100318.00
2022-10-15T02:16:54.921Z,100320.00
2022-10-15T02:19:41.423Z,100310.00
2022-10-15T02:22:47.725Z,100310.00
2022-10-15T02:25:22.386Z,100313.00
2022-10-15T02:27:52.504Z,100307.00
2022-10-15T02:30:20.365Z,100308.00
2022-10-15T02:32:53.219Z,100315.00
2022-10-15T02:35:22.496Z,100318.00
2022-10-15T02:37:54.152Z,100310.00
2022-10-15T02:40:27.282Z,100315.00
2022-10-15T02:42:55.481Z,100312.00
2022-10-15T02:45:22.462Z,100310.00
2022-10-15T02:47:49.162Z,100308.00
2022-10-15T02:50:15.963Z,100295.00
2022-10-15T02:52:42.798Z,100303.00
2022-10-15T02:55:09.694Z,100293.00
2022-10-15T02:57:36.520Z,100298.00
2022-10-15T03:00:05.191Z,100295.00
2022-10-15T03:02:31.970Z,100291.00
2022-10-15T03:04:58.732Z,100293.00
2022-10-15T03:07:25.829Z,100289.00
2022-10-15T03:09:52.912Z,100294.00
2022-10-15T03:12:23.236Z,100295.00
2022-10-15T03:14:50.259Z,100290.00
2022-10-15T03:17:17.046Z,100289.00
2022-10-15T03:19:44.338Z,100299.00
2022-10-15T03:22:11.132Z,100290.00
2022-10-15T03:24:37.927Z,100294.00
2022-10-15T03:27:04.659Z,100296.00
2022-10-15T03:29:31.421Z,100285.00
2022-10-15T03:31:58.202Z,100267.00
2022-10-15T03:34:24.937Z,100266.00
2022-10-15T03:36:51.682Z,100266.00
2022-10-15T03:39:18.593Z,100266.00
2022-10-15T03:41:45.330Z,100274.00
2022-10-15T03:44:13.756Z,100247.00
2022-10-15T03:46:40.469Z,100266.00
2022-10-15T03:49:07.205Z,100273.00
2022-10-15T03:51:33.962Z,100269.00
2022-10-15T03:54:00.734Z,100268.00
2022-10-15T03:56:27.505Z,100264.00
2022-10-15T03:58:54.230Z,100261.00
2022-10-15T04:01:21.037Z,100274.00
2022-10-15T04:03:47.873Z,100275.00
2022-10-15T04:06:14.583Z,100272.00
2022-10-15T04:08:41.367Z,100271.00
2022-10-15T04:11:08.239Z,100269.00
2022-10-15T04:13:34.951Z,100275.00
2022-10-15T04:16:05.568Z,100276.00
2022-10-15T04:18:33.346Z,100286.00
2022-10-15T04:21:01.549Z,100281.00
2022-10-15T04:23:28.399Z,100276.00
2022-10-15T04:26:00.730Z,100277.00
2022-10-15T04:28:28.622Z,100279.00
2022-10-15T04:31:00.233Z,100288.00
2022-10-15T04:33:27.383Z,100278.00
2022-10-15T04:36:11.404Z,100282.00
2022-10-15T04:38:38.206Z,100278.00
2022-10-15T04:41:11.751Z,100277.00
2022-10-15T04:43:39.443Z,100284.00
2022-10-15T04:46:08.465Z,100283.00
2022-10-15T04:48:40.371Z,100279.00
2022-10-15T04:51:14.993Z,100283.00
2022-10-15T04:53:42.076Z,100274.00
2022-10-15T04:56:17.824Z,100282.00
2022-10-15T04:58:47.009Z,100281.00
2022-10-15T05:01:17.351Z,100287.00
2022-10-15T05:03:46.614Z,100284.00
2022-10-15T05:06:20.546Z,100285.00
2022-10-15T05:08:49.122Z,100286.00
2022-10-15T05:11:26.354Z,100279.00
2022-10-15T05:13:56.054Z,100279.00
2022-10-15T05:16:26.923Z,100280.00
2022-10-15T05:18:59.838Z,100277.00
2022-10-15T05:21:26.971Z,100287.00
2022-10-15T05:23:53.778Z,100278.00
2022-10-15T05:26:25.103Z,100276.00
2022-10-15T05:28:52.921Z,100283.00
2022-10-15T05:31:25.324Z,100275.00
2022-10-15T05:33:54.102Z,100271.00
2022-10-15T05:36:25.934Z,100279.00
2022-10-15T05:39:01.616Z,100298.00
2022-10-15T05:41:30.617Z,100299.00
2022-10-15T05:43:59.266Z,100290.00
2022-10-15T05:46:26.569Z,100288.00
2022-10-15T05:48:56.504Z,100285.00
2022-10-15T05:51:25.595Z,100289.00
2022-10-15T05:53:57.263Z,100293.00
2022-10-15T05:56:26.027Z,100306.00
2022-10-15T05:58:52.953Z,100304.00
2022-10-15T06:01:20.279Z,100310.00
2022-10-15T06:03:47.297Z,100312.00
2022-10-15T06:06:17.235Z,100315.00
2022-10-15T06:08:44.581Z,100314.00
2022-10-15T06:11:11.770Z,100314.00
2022-10-15T06:13:42.241Z,100323.00
2022-10-15T06:16:10.489Z,100321.00
2022-10-15T06:18:38.778Z,100323.00
2022-10-15T06:21:07.696Z,100334.00
2022-10-15T06:23:35.777Z,100324.00
2022-10-15T06:26:05.806Z,100337.00
2022-10-15T06:28:33.734Z,100335.00
2022-10-15T06:31:01.316Z,100333.00
2022-10-15T06:33:29.316Z,100344.00
2022-10-15T06:36:07.848Z,100335.00
2022-10-15T06:38:35.082Z,100338.00
2022-10-15T06:41:05.779Z,100336.00
2022-10-15T06:43:34.846Z,100336.00
2022-10-15T06:46:05.138Z,100338.00
2022-10-15T06:48:32.863Z,100337.00
2022-10-15T06:51:02.073Z,100345.00
2022-10-15T06:53:30.111Z,100342.00
2022-10-15T06:55:59.281Z,100344.00
2022-10-15T06:58:26.714Z,100349.00
2022-10-15T07:00:53.808Z,100361.00
2022-10-15T07:03:20.611Z,100350.00
2022-10-15T07:05:47.594Z,100375.00
2022-10-15T07:08:18.402Z,100367.00
2022-10-15T07:10:46.545Z,100375.00
2022-10-15T07:13:14.165Z,100373.00
2022-10-15T07:15:41.109Z,100385.00
2022-10-15T07:18:07.874Z,100385.00
2022-10-15T07:20:34.576Z,100388.00
2022-10-15T07:23:02.569Z,100394.00
2022-10-15T07:25:29.922Z,100402.00
2022-10-15T07:27:57.670Z,100392.00
2022-10-15T07:30:28.623Z,100385.00
2022-10-15T07:32:59.831Z,100386.00
2022-10-15T07:35:27.925Z,100385.00
2022-10-15T07:37:55.248Z,100374.00
2022-10-15T07:40:21.983Z,100373.00
2022-10-15T07:42:59.606Z,100373.00
2022-10-15T07:45:27.551Z,100379.00
2022-10-15T07:47:54.895Z,100378.00
2022-10-15T07:50:22.532Z,100380.00
2022-10-15T07:52:49.511Z,100377.00
2022-10-15T07:55:16.365Z,100377.00
2022-10-15T07:57:43.229Z,100368.00
2022-10-15T08:00:10.914Z,100375.00
2022-10-15T08:02:37.650Z,100377.00
2022-10-15T08:05:04.875Z,100366.00
2022-10-15T08:07:31.801Z,100365.00
2022-10-15T08:09:58.589Z,100369.00
2022-10-15T08:12:25.695Z,100373.00
2022-10-15T08:14:52.913Z,100373.00
2022-10-15T08:17:19.609Z,100387.00
2022-10-15T08:19:46.325Z,100384.00
2022-10-15T08:22:13.119Z,100377.00
2022-10-15T08:24:39.839Z,100385.00
2022-10-15T08:27:06.571Z,100396.00
2022-10-15T08:29:33.313Z,100392.00
2022-10-15T08:32:00.045Z,100389.00
2022-10-15T08:34:29.671Z,100385.00
2022-10-15T08:36:56.441Z,100391.00
2022-10-15T08:39:23.159Z,100386.00
2022-10-15T08:41:55.469Z,100400.00
2022-10-15T08:44:32.144Z,100396.00
2022-10-15T08:47:26.963Z,100401.00
2022-10-15T08:50:01.201Z,100391.00
2022-10-15T08:52:46.207Z,100390.00
2022-10-15T08:55:17.262Z,100396.00
2022-10-15T08:58:03.535Z,100394.00
2022-10-15T09:00:41.341Z,100403.00
2022-10-15T09:03:38.993Z,100413.00
2022-10-15T09:06:35.375Z,100406.00
2022-10-15T09:09:43.763Z,100417.00
2022-10-15T09:12:47.562Z,100427.00
2022-10-15T09:15:22.644Z,100420.00
2022-10-15T09:17:55.062Z,100414.00
2022-10-15T09:20:32.941Z,100416.00
2022-10-15T09:23:00.360Z,100414.00
2022-10-15T09:25:36.269Z,100411.00
2022-10-15T09:28:14.490Z,100413.00
2022-10-15T09:30:53.920Z,100424.00
2022-10-15T09:33:48.929Z,100413.00
2022-10-15T09:36:43.505Z,100417.00
2022-10-15T09:39:49.702Z,100421.00
2022-10-15T09:42:32.789Z,100418.00
2022-10-15T09:45:04.558Z,100422.00
2022-10-15T09:47:36.169Z,100418.00
2022-10-15T09:50:06.663Z,100427.00
2022-10-15T09:53:00.442Z,100421.00
2022-10-15T09:55:53.955Z,100429.00
2022-10-15T09:58:27.978Z,100427.00
2022-10-15T10:01:00.983Z,100426.00
2022-10-15T10:03:32.212Z,100418.00
2022-10-15T10:06:11.839Z,100418.00
2022-10-15T10:08:59.924Z,100431.00
2022-10-15T10:11:45.339Z,100434.00
2022-10-15T10:14:33.615Z,100439.00
2022-10-15T10:17:25.197Z,100437.00
2022-10-15T10:20:18.179Z,100436.00
2022-10-15T10:22:54.671Z,100440.00
2022-10-15T10:25:27.249Z,100451.00
2022-10-15T10:28:06.991Z,100441.00
2022-10-15T10:30:52.026Z,100435.00
2022-10-15T10:33:36.997Z,100431.00
2022-10-15T10:36:07.348Z,100438.00
2022-10-15T10:38:38.185Z,100433.00
2022-10-15T10:41:11.845Z,100441.00
2022-10-15T10:43:40.892Z,100439.00
2022-10-15T10:46:14.667Z,100435.00
2022-10-15T10:48:53.738Z,100435.00
2022-10-15T10:51:27.784Z,100435.00
2022-10-15T10:54:12.258Z,100435.00
2022-10-15T10:56:43.662Z,100434.00
2022-10-15T10:59:20.935Z,100438.00
2022-10-15T11:01:47.893Z,100441.00
2022-10-15T11:04:23.831Z,100447.00
2022-10-15T11:07:05.783Z,100440.00
2022-10-15T11:10:08.376Z,100436.00
2022-10-15T11:12:50.134Z,100438.00
2022-10-15T11:15:28.013Z,100444.00
2022-10-15T11:19:03.558Z,100448.00
2022-10-15T11:22:07.567Z,100445.00
2022-10-15T11:25:06.707Z,100447.00
2022-10-15T11:27:58.614Z,100452.00
2022-10-15T11:30:59.985Z,100432.00
2022-10-15T11:34:01.197Z,100442.00
2022-10-15T11:37:01.707Z,100426.00
2022-10-15T11:39:59.949Z,100428.00
2022-10-15T11:42:52.818Z,100437.00
2022-10-15T11:45:54.341Z,100425.00
2022-10-15T11:48:48.143Z,100428.00
2022-10-15T11:51:34.405Z,100423.00
2022-10-15T11:54:54.216Z,100424.00
2022-10-15T11:57:25.464Z,100419.00
2022-10-15T12:00:15.372Z,100423.00
2022-10-15T12:02:42.332Z,100423.00
2022-10-15T12:05:18.760Z,100417.00
2022-10-15T12:07:49.829Z,100424.00
2022-10-15T12:10:28.475Z,100416.00
2022-10-15T12:13:26.899Z,100422.00
2022-10-15T12:16:34.995Z,100427.00
2022-10-15T12:19:35.556Z,100422.00
2022-10-15T12:22:13.263Z,100417.00
2022-10-15T12:24:40.748Z,100427.00
2022-10-15T12:27:30.476Z,100420.00
2022-10-15T12:30:00.341Z,100430.00
2022-10-15T12:32:46.499Z,100428.00
2022-10-15T12:35:16.431Z,100423.00
2022-10-15T12:37:47.994Z,100431.00
2022-10-15T12:40:26.398Z,100431.00
2022-10-15T12:43:03.973Z,100436.00
2022-10-15T12:45:50.639Z,100431.00
2022-10-15T12:48:32.203Z,100434.00
2022-10-15T12:51:23.149Z,100433.00
2022-10-15T12:53:53.130Z,100437.00
2022-10-15T12:56:34.805Z,100426.00
2022-10-15T12:59:01.537Z,100430.00
2022-10-15T13:01:50.356Z,100429.00
2022-10-15T13:04:18.470Z,100427.00
2022-10-15T13:06:45.803Z,100424.00
2022-10-15T13:09:12.596Z,100424.00
2022-10-15T13:14:51.499Z,100417.00
2022-10-15T13:17:22.887Z,100425.00
2022-10-15T13:20:22.250Z,100421.00
2022-10-15T13:22:49.034Z,100411.00
2022-10-15T13:25:17.523Z,100418.00
2022-10-15T13:27:44.412Z,100420.00
2022-10-15T13:30:17.282Z,100419.00
2022-10-15T13:32:51.010Z,100427.00
2022-10-15T13:35:29.159Z,100423.00
2022-10-15T13:37:58.567Z,100423.00
2022-10-15T13:40:29.079Z,100418.00
2022-10-15T13:43:06.186Z,100417.00
2022-10-15T13:45:33.979Z,100423.00
2022-10-15T13:48:00.967Z,100412.00
2022-10-15T13:50:37.123Z,100415.00
2022-10-15T13:53:22.541Z,100420.00
2022-10-15T13:55:54.414Z,100426.00
2022-10-15T13:58:29.042Z,100431.00
2022-10-15T14:01:01.348Z,100416.00
2022-10-15T14:03:33.721Z,100419.00
2022-10-15T14:06:19.976Z,100419.00
2022-10-15T14:09:00.760Z,100428.00
2022-10-15T14:11:36.362Z,100420.00
2022-10-15T14:14:03.115Z,100414.00
2022-10-15T14:16:48.317Z,100409.00
2022-10-15T14:19:22.320Z,100419.00
2022-10-15T14:21:52.135Z,100424.00
2022-10-15T14:24:33.633Z,100425.00
2022-10-15T14:27:15.489Z,100418.00
2022-10-15T14:29:45.705Z,100427.00
2022-10-15T14:32:32.351Z,100424.00
2022-10-15T14:35:01.167Z,100418.00
2022-10-15T14:37:35.069Z,100425.00
2022-10-15T14:40:10.987Z,100419.00
2022-10-15T14:42:45.297Z,100430.00
2022-10-15T14:45:17.963Z,100435.00
2022-10-15T14:47:51.635Z,100423.00
2022-10-15T14:50:19.634Z,100425.00
2022-10-15T14:52:51.153Z,100431.00
2022-10-15T14:55:24.034Z,100428.00
2022-10-15T14:57:52.007Z,100433.00
2022-10-15T15:00:34.141Z,100429.00
2022-10-15T15:03:05.555Z,100425.00
2022-10-15T15:05:49.583Z,100432.00
2022-10-15T15:08:16.877Z,100432.00
2022-10-15T15:10:45.884Z,100436.00
2022-10-15T15:13:21.968Z,100437.00
2022-10-15T15:15:48.899Z,100431.00
2022-10-15T15:18:17.424Z,100433.00
2022-10-15T15:20:48.145Z,100447.00
2022-10-15T15:23:25.583Z,100458.00
2022-10-15T15:25:54.170Z,100452.00
2022-10-15T15:28:25.032Z,100443.00
2022-10-15T15:30:57.840Z,100437.00
2022-10-15T15:33:25.618Z,100443.00
2022-10-15T15:36:29.529Z,100438.00
2022-10-15T15:38:58.825Z,100439.00
2022-10-15T15:41:25.775Z,100436.00
2022-10-15T15:43:54.913Z,100437.00
2022-10-15T15:46:21.666Z,100437.00
2022-10-15T15:48:48.370Z,100437.00
2022-10-15T15:51:24.698Z,100444.00
2022-10-15T15:53:52.288Z,100441.00
2022-10-15T15:56:19.093Z,100438.00
2022-10-15T15:58:46.602Z,100440.00
2022-10-15T16:01:13.442Z,100444.00
2022-10-15T16:03:40.185Z,100450.00
2022-10-15T16:06:08.418Z,100461.00
2022-10-15T16:08:37.586Z,100445.00
2022-10-15T16:11:06.255Z,100454.00
2022-10-15T16:13:33.832Z,100454.00
2022-10-15T16:16:00.779Z,100453.00
2022-10-15T16:18:27.744Z,100460.00
2022-10-15T16:20:55.350Z,100466.00
2022-10-15T16:23:22.153Z,100474.00
2022-10-15T16:25:48.866Z,100469.00
2022-10-15T16:28:15.645Z,100473.00
2022-10-15T16:30:42.403Z,100469.00
2022-10-15T16:35:40.925Z,100462.00
2022-10-15T16:38:08.496Z,100466.00
2022-10-15T16:40:35.431Z,100466.00
2022-10-15T16:43:02.220Z,100465.00
2022-10-15T16:45:28.951Z,100472.00
2022-10-15T16:47:55.747Z,100473.00
2022-10-15T16:50:23.797Z,100476.00
2022-10-15T16:52:50.581Z,100476.00
2022-10-15T16:55:17.406Z,100483.00
2022-10-15T16:57:44.516Z,100488.00
2022-10-15T17:00:11.993Z,100488.00
2022-10-15T17:02:38.756Z,100494.00
2022-10-15T17:05:06.283Z,100496.00
2022-10-15T17:07:32.998Z,100500.00
2022-10-15T17:10:00.324Z,100498.00
2022-10-15T17:12:27.646Z,100502.00
2022-10-15T17:14:54.605Z,100504.00
2022-10-15T17:17:21.366Z,100511.00
2022-10-15T17:19:48.185Z,100512.00
2022-10-15T17:22:14.959Z,100513.00
2022-10-15T17:24:41.715Z,100515.00
2022-10-15T17:27:08.460Z,100506.00
2022-10-15T17:29:35.206Z,100512.00
2022-10-15T17:32:02.916Z,100513.00
2022-10-15T17:34:29.918Z,100531.00
2022-10-15T17:36:56.948Z,100524.00
2022-10-15T17:39:23.996Z,100528.00
2022-10-15T17:41:52.016Z,100531.00
2022-10-15T17:44:19.850Z,100518.00
2022-10-15T17:46:46.652Z,100516.00
2022-10-15T17:49:18.117Z,100529.00
2022-10-15T17:51:45.987Z,100513.00
2022-10-15T17:54:13.030Z,100515.00
2022-10-15T17:56:40.104Z,100517.00
2022-10-15T17:59:11.415Z,100516.00
2022-10-15T18:01:59.324Z,100513.00
2022-10-15T18:04:30.329Z,100512.00
2022-10-15T18:06:57.375Z,100516.00
2022-10-15T18:09:26.277Z,100522.00
2022-10-15T18:11:53.066Z,100521.00
2022-10-15T18:16:47.468Z,100520.00
2022-10-15T18:19:14.266Z,100530.00
2022-10-15T18:21:41.926Z,100526.00
2022-10-15T18:24:10.736Z,100518.00
2022-10-15T18:26:37.475Z,100537.00
2022-10-15T18:29:05.094Z,100531.00
2022-10-15T18:31:31.883Z,100541.00
2022-10-15T18:33:58.632Z,100533.00
2022-10-15T18:36:29.040Z,100538.00
2022-10-15T18:38:58.248Z,100535.00
2022-10-15T18:41:28.908Z,100543.00
2022-10-15T18:43:59.289Z,100534.00
2022-10-15T18:46:30.812Z,100545.00
2022-10-15T18:48:58.715Z,100542.00
2022-10-15T18:51:26.346Z,100550.00
2022-10-15T18:53:53.482Z,100543.00
2022-10-15T18:56:21.832Z,100546.00
2022-10-15T18:58:48.838Z,100544.00
2022-10-15T19:01:29.709Z,100544.00
2022-10-15T19:03:59.839Z,100543.00
2022-10-15T19:06:34.788Z,100539.00
2022-10-15T19:09:04.992Z,100539.00
2022-10-15T19:11:33.218Z,100535.00
2022-10-15T19:14:01.266Z,100528.00
2022-10-15T19:16:28.522Z,100538.00
2022-10-15T19:18:55.265Z,100537.00
2022-10-15T19:21:22.100Z,100533.00
2022-10-15T19:23:48.879Z,100533.00
2022-10-15T19:26:16.589Z,100548.00
2022-10-15T19:28:44.221Z,100543.00
2022-10-15T19:31:26.171Z,100547.00
2022-10-15T19:33:55.867Z,100542.00
2022-10-15T19:36:26.471Z,100544.00
2022-10-15T19:38:53.695Z,100550.00
2022-10-15T19:41:20.615Z,100552.00
2022-10-15T19:43:47.339Z,100550.00
2022-10-15T19:46:14.501Z,100557.00
2022-10-15T19:48:41.594Z,100546.00
2022-10-15T19:51:08.609Z,100555.00
2022-10-15T19:53:35.511Z,100549.00
2022-10-15T19:56:07.540Z,100540.00
2022-10-15T19:58:35.123Z,100548.00
2022-10-15T20:01:03.030Z,100548.00
2022-10-15T20:03:30.573Z,100555.00
2022-10-15T20:05:57.878Z,100550.00
2022-10-15T20:08:25.372Z,100553.00
2022-10-15T20:10:52.973Z,100560.00
2022-10-15T20:13:22.428Z,100561.00
2022-10-15T20:15:53.748Z,100582.00
2022-10-15T20:18:21.856Z,100580.00
2022-10-15T20:20:48.934Z,100581.00
2022-10-15T20:23:17.943Z,100594.00
2022-10-15T20:25:45.881Z,100594.00
2022-10-15T20:28:15.385Z,100593.00
2022-10-15T20:30:45.823Z,100586.00
2022-10-15T20:33:13.289Z,100587.00
2022-10-15T20:35:41.264Z,100581.00
2022-10-15T20:38:08.422Z,100596.00
2022-10-15T20:40:38.987Z,100587.00
2022-10-15T20:43:05.900Z,100598.00
2022-10-15T20:45:43.731Z,100589.00
2022-10-15T20:48:22.453Z,100593.00
2022-10-15T20:50:50.716Z,100608.00
2022-10-15T20:53:19.243Z,100610.00
2022-10-15T20:55:46.053Z,100606.00
2022-10-15T20:58:13.030Z,100610.00
2022-10-15T21:00:39.797Z,100608.00
2022-10-15T21:03:06.520Z,100611.00
2022-10-15T21:05:33.527Z,100612.00
2022-10-15T21:08:00.817Z,100617.00
2022-10-15T21:10:27.699Z,100616.00
2022-10-15T21:12:55.117Z,100615.00
2022-10-15T21:15:22.281Z,100616.00
2022-10-15T21:17:49.191Z,100624.00
2022-10-15T21:20:16.051Z,100635.00
2022-10-15T21:22:42.811Z,100634.00
2022-10-15T21:25:09.793Z,100621.00
2022-10-15T21:27:36.547Z,100624.00
2022-10-15T21:30:03.444Z,100626.00
2022-10-15T21:32:30.192Z,100622.00
2022-10-15T21:34:57.379Z,100631.00
2022-10-15T21:37:24.576Z,100632.00
2022-10-15T21:39:51.558Z,100631.00
2022-10-15T21:42:18.323Z,100625.00
2022-10-15T21:44:45.038Z,100633.00
2022-10-15T21:47:14.459Z,100623.00
2022-10-15T21:49:42.175Z,100633.00
2022-10-15T21:52:08.916Z,100623.00
2022-10-15T21:54:35.693Z,100638.00
2022-10-15T21:57:02.406Z,100631.00
2022-10-15T21:59:29.131Z,100632.00
2022-10-15T22:01:55.932Z,100637.00
2022-10-15T22:04:22.824Z,100641.00
2022-10-15T22:06:49.544Z,100640.00
2022-10-15T22:09:16.269Z,100650.00
2022-10-15T22:11:43.118Z,100651.00
2022-10-15T22:14:14.049Z,100644.00
2022-10-15T22:16:41.746Z,100637.00
2022-10-15T22:19:13.464Z,100648.00
2022-10-15T22:21:40.306Z,100657.00
2022-10-15T22:24:19.968Z,100654.00
2022-10-15T22:26:50.651Z,100655.00
2022-10-15T22:29:24.269Z,100654.00
2022-10-15T22:31:52.981Z,100650.00
2022-10-15T22:34:22.753Z,100664.00
2022-10-15T22:36:50.196Z,100655.00
2022-10-15T22:39:19.179Z,100639.00
2022-10-15T22:41:47.957Z,100638.00
2022-10-15T22:44:20.661Z,100647.00
2022-10-15T22:46:49.588Z,100648.00
2022-10-15T22:49:20.610Z,100654.00
2022-10-15T22:51:49.114Z,100648.00
2022-10-15T22:54:19.269Z,100654.00
2022-10-15T22:56:46.983Z,100655.00
2022-10-15T22:59:15.133Z,100660.00
2022-10-15T23:01:42.226Z,100655.00
2022-10-15T23:04:13.406Z,100647.00
2022-10-15T23:06:40.675Z,100655.00
2022-10-15T23:09:08.665Z,100661.00
2022-10-15T23:11:39.714Z,100663.00
2022-10-15T23:14:11.294Z,100668.00
2022-10-15T23:16:42.025Z,100668.00
2022-10-15T23:19:18.349Z,100664.00
2022-10-15T23:21:51.862Z,100667.00
2022-10-15T23:24:23.019Z,100675.00
2022-10-15T23:26:50.586Z,100678.00
2022-10-15T23:29:23.925Z,100672.00
2022-10-15T23:31:51.518Z,100670.00
2022-10-15T23:34:22.155Z,100681.00
2022-10-15T23:36:49.889Z,100677.00
2022-10-15T23:39:24.276Z,100677.00
2022-10-15T23:41:51.336Z,100687.00
2022-10-15T23:44:18.848Z,100686.00
2022-10-15T23:46:46.331Z,100688.00
2022-10-15T23:49:13.440Z,100684.00
2022-10-15T23:51:40.847Z,100687.00
2022-10-15T23:54:16.234Z,100682.00
2022-10-15T23:56:43.969Z,100683.00
2022-10-15T23:59:11.143Z,100693.00
